sensor_id;sensor_type;location;lat;lon;timestamp;P1;durP1;ratioP1;P2;durP2;ratioP2
61356;SDS011;47227;46.752;23.576;2023-05-10T02:55:42;5.40;;;3.30;;
61356;SDS011;47227;46.752;23.576;2023-05-10T02:58:15;4.20;;;3.30;;
61356;SDS011;47227;46.752;23.576;2023-05-10T03:00:43;4.10;;;3.00;;
61356;SDS011;47227;46.752;23.576;2023-05-10T03:03:11;4.60;;;3.20;;
61356;SDS011;47227;46.752;23.576;2023-05-10T03:05:39;4.30;;;3.10;;
61356;SDS011;47227;46.752;23.576;2023-05-10T03:08:08;4.10;;;3.00;;
61356;SDS011;47227;46.752;23.576;2023-05-10T03:11:43;4.10;;;3.10;;
61356;SDS011;47227;46.752;23.576;2023-05-10T03:15:22;3.40;;;3.10;;
61356;SDS011;47227;46.752;23.576;2023-05-10T03:18:06;3.30;;;2.70;;
61356;SDS011;47227;46.752;23.576;2023-05-10T03:20:40;4.10;;;3.30;;
61356;SDS011;47227;46.752;23.576;2023-05-10T03:23:13;3.60;;;3.30;;
61356;SDS011;47227;46.752;23.576;2023-05-10T03:25:52;4.60;;;3.20;;
61356;SDS011;47227;46.752;23.576;2023-05-10T03:28:20;4.20;;;3.60;;
61356;SDS011;47227;46.752;23.576;2023-05-10T03:30:49;3.70;;;3.20;;
61356;SDS011;47227;46.752;23.576;2023-05-10T03:33:19;7.30;;;3.50;;
61356;SDS011;47227;46.752;23.576;2023-05-10T03:35:49;4.10;;;3.20;;
61356;SDS011;47227;46.752;23.576;2023-05-10T03:38:18;4.00;;;3.30;;
61356;SDS011;47227;46.752;23.576;2023-05-10T03:40:46;8.10;;;3.80;;
61356;SDS011;47227;46.752;23.576;2023-05-10T03:43:16;4.00;;;2.80;;
61356;SDS011;47227;46.752;23.576;2023-05-10T03:45:44;3.30;;;3.00;;
61356;SDS011;47227;46.752;23.576;2023-05-10T03:48:12;4.60;;;3.20;;
61356;SDS011;47227;46.752;23.576;2023-05-10T03:50:41;4.20;;;3.10;;
61356;SDS011;47227;46.752;23.576;2023-05-10T03:53:10;4.00;;;3.20;;
61356;SDS011;47227;46.752;23.576;2023-05-10T03:55:38;7.00;;;4.10;;
61356;SDS011;47227;46.752;23.576;2023-05-10T03:58:11;5.80;;;4.00;;
61356;SDS011;47227;46.752;23.576;2023-05-10T04:00:40;9.90;;;4.30;;
61356;SDS011;47227;46.752;23.576;2023-05-10T04:03:13;6.10;;;4.40;;
61356;SDS011;47227;46.752;23.576;2023-05-10T04:05:41;5.90;;;3.90;;
61356;SDS011;47227;46.752;23.576;2023-05-10T04:08:09;7.90;;;3.90;;
61356;SDS011;47227;46.752;23.576;2023-05-10T04:10:38;5.60;;;4.20;;
61356;SDS011;47227;46.752;23.576;2023-05-10T04:13:05;5.50;;;4.20;;
61356;SDS011;47227;46.752;23.576;2023-05-10T04:15:33;9.70;;;4.70;;
61356;SDS011;47227;46.752;23.576;2023-05-10T04:18:03;9.70;;;4.10;;
61356;SDS011;47227;46.752;23.576;2023-05-10T04:20:34;6.50;;;3.90;;
61356;SDS011;47227;46.752;23.576;2023-05-10T04:23:04;5.30;;;4.20;;
61356;SDS011;47227;46.752;23.576;2023-05-10T04:25:33;9.00;;;4.60;;
61356;SDS011;47227;46.752;23.576;2023-05-10T04:28:06;7.60;;;5.00;;
61356;SDS011;47227;46.752;23.576;2023-05-10T04:30:35;11.00;;;4.80;;
61356;SDS011;47227;46.752;23.576;2023-05-10T04:33:03;12.80;;;5.40;;
61356;SDS011;47227;46.752;23.576;2023-05-10T04:35:31;13.40;;;5.20;;
61356;SDS011;47227;46.752;23.576;2023-05-10T04:37:59;8.40;;;5.90;;
61356;SDS011;47227;46.752;23.576;2023-05-10T04:40:27;13.20;;;5.90;;
61356;SDS011;47227;46.752;23.576;2023-05-10T04:42:55;14.00;;;6.80;;
61356;SDS011;47227;46.752;23.576;2023-05-10T04:45:23;9.30;;;6.20;;
61356;SDS011;47227;46.752;23.576;2023-05-10T04:47:51;8.40;;;5.80;;
61356;SDS011;47227;46.752;23.576;2023-05-10T04:50:19;9.50;;;6.00;;
61356;SDS011;47227;46.752;23.576;2023-05-10T04:52:47;10.50;;;6.50;;
61356;SDS011;47227;46.752;23.576;2023-05-10T04:55:18;12.10;;;5.60;;
61356;SDS011;47227;46.752;23.576;2023-05-10T04:57:47;12.70;;;5.40;;
61356;SDS011;47227;46.752;23.576;2023-05-10T05:00:17;7.50;;;5.10;;
61356;SDS011;47227;46.752;23.576;2023-05-10T05:02:46;11.70;;;5.60;;
61356;SDS011;47227;46.752;23.576;2023-05-10T05:05:18;8.20;;;5.20;;
61356;SDS011;47227;46.752;23.576;2023-05-10T05:07:49;8.20;;;4.50;;
61356;SDS011;47227;46.752;23.576;2023-05-10T05:10:19;8.50;;;5.20;;
61356;SDS011;47227;46.752;23.576;2023-05-10T05:12:51;8.10;;;4.30;;
61356;SDS011;47227;46.752;23.576;2023-05-10T05:15:20;10.30;;;5.10;;
61356;SDS011;47227;46.752;23.576;2023-05-10T05:17:48;6.60;;;4.60;;
61356;SDS011;47227;46.752;23.576;2023-05-10T05:20:20;8.00;;;3.60;;
61356;SDS011;47227;46.752;23.576;2023-05-10T05:22:48;3.30;;;2.50;;
61356;SDS011;47227;46.752;23.576;2023-05-10T05:25:18;8.10;;;3.30;;
61356;SDS011;47227;46.752;23.576;2023-05-10T05:27:49;4.00;;;2.70;;
61356;SDS011;47227;46.752;23.576;2023-05-10T05:30:17;3.10;;;2.80;;
61356;SDS011;47227;46.752;23.576;2023-05-10T05:32:46;2.60;;;2.40;;
61356;SDS011;47227;46.752;23.576;2023-05-10T05:35:14;6.00;;;3.00;;
61356;SDS011;47227;46.752;23.576;2023-05-10T05:37:43;3.90;;;2.70;;
61356;SDS011;47227;46.752;23.576;2023-05-10T05:40:12;3.30;;;2.50;;
61356;SDS011;47227;46.752;23.576;2023-05-10T05:42:41;3.50;;;2.10;;
61356;SDS011;47227;46.752;23.576;2023-05-10T05:45:09;3.20;;;2.30;;
61356;SDS011;47227;46.752;23.576;2023-05-10T05:47:44;3.70;;;2.20;;
61356;SDS011;47227;46.752;23.576;2023-05-10T05:50:15;2.70;;;2.00;;
61356;SDS011;47227;46.752;23.576;2023-05-10T05:52:44;3.90;;;2.40;;
61356;SDS011;47227;46.752;23.576;2023-05-10T05:55:21;2.40;;;2.20;;
61356;SDS011;47227;46.752;23.576;2023-05-10T06:01:24;2.70;;;2.10;;
61356;SDS011;47227;46.752;23.576;2023-05-10T06:04:26;3.30;;;2.10;;
61356;SDS011;47227;46.752;23.576;2023-05-10T06:07:05;3.60;;;1.90;;
61356;SDS011;47227;46.752;23.576;2023-05-10T06:09:46;3.10;;;2.40;;
61356;SDS011;47227;46.752;23.576;2023-05-10T06:20:23;5.10;;;2.40;;
61356;SDS011;47227;46.752;23.576;2023-05-10T06:26:25;5.00;;;2.70;;
61356;SDS011;47227;46.752;23.576;2023-05-10T06:29:13;3.90;;;2.30;;
61356;SDS011;47227;46.752;23.576;2023-05-10T06:31:42;2.30;;;2.10;;
61356;SDS011;47227;46.752;23.576;2023-05-10T06:34:11;3.10;;;2.10;;
61356;SDS011;47227;46.752;23.576;2023-05-10T06:36:42;6.10;;;2.30;;
61356;SDS011;47227;46.752;23.576;2023-05-10T06:39:10;4.40;;;1.60;;
61356;SDS011;47227;46.752;23.576;2023-05-10T06:41:39;10.10;;;3.10;;
61356;SDS011;47227;46.752;23.576;2023-05-10T06:44:08;4.20;;;2.50;;
61356;SDS011;47227;46.752;23.576;2023-05-10T06:46:37;5.30;;;2.10;;
61356;SDS011;47227;46.752;23.576;2023-05-10T06:49:04;6.00;;;2.60;;
61356;SDS011;47227;46.752;23.576;2023-05-10T06:51:33;2.60;;;2.20;;
61356;SDS011;47227;46.752;23.576;2023-05-10T06:54:02;3.50;;;2.30;;
61356;SDS011;47227;46.752;23.576;2023-05-10T06:57:25;2.90;;;2.40;;
61356;SDS011;47227;46.752;23.576;2023-05-10T07:07:19;4.70;;;2.90;;
61356;SDS011;47227;46.752;23.576;2023-05-10T07:29:40;4.70;;;2.50;;
61356;SDS011;47227;46.752;23.576;2023-05-10T07:32:59;5.20;;;2.70;;
61356;SDS011;47227;46.752;23.576;2023-05-10T07:48:33;5.80;;;3.20;;
61356;SDS011;47227;46.752;23.576;2023-05-10T07:56:19;5.40;;;3.40;;
61356;SDS011;47227;46.752;23.576;2023-05-10T08:00:17;6.20;;;2.80;;
61356;SDS011;47227;46.752;23.576;2023-05-10T08:04:30;3.30;;;2.50;;
61356;SDS011;47227;46.752;23.576;2023-05-10T08:13:10;6.10;;;2.50;;
61356;SDS011;47227;46.752;23.576;2023-05-10T08:20:01;2.70;;;2.50;;
61356;SDS011;47227;46.752;23.576;2023-05-10T08:23:23;3.30;;;2.40;;
61356;SDS011;47227;46.752;23.576;2023-05-10T08:26:48;10.90;;;3.00;;
61356;SDS011;47227;46.752;23.576;2023-05-10T08:30:03;3.40;;;2.30;;
61356;SDS011;47227;46.752;23.576;2023-05-10T08:37:06;2.60;;;1.60;;
61356;SDS011;47227;46.752;23.576;2023-05-10T08:45:10;3.60;;;1.90;;
61356;SDS011;47227;46.752;23.576;2023-05-10T08:48:40;2.00;;;1.70;;
61356;SDS011;47227;46.752;23.576;2023-05-10T08:53:13;3.20;;;1.70;;
61356;SDS011;47227;46.752;23.576;2023-05-10T08:57:56;4.80;;;1.80;;
61356;SDS011;47227;46.752;23.576;2023-05-10T09:01:04;2.10;;;1.50;;
61356;SDS011;47227;46.752;23.576;2023-05-10T09:06:44;2.50;;;1.50;;
61356;SDS011;47227;46.752;23.576;2023-05-10T09:09:42;3.70;;;1.60;;
61356;SDS011;47227;46.752;23.576;2023-05-10T09:13:44;2.50;;;1.40;;
61356;SDS011;47227;46.752;23.576;2023-05-10T09:17:48;1.70;;;1.10;;
61356;SDS011;47227;46.752;23.576;2023-05-10T09:21:05;1.80;;;1.20;;
61356;SDS011;47227;46.752;23.576;2023-05-10T09:26:01;4.10;;;1.40;;
61356;SDS011;47227;46.752;23.576;2023-05-10T09:33:07;1.40;;;1.00;;
61356;SDS011;47227;46.752;23.576;2023-05-10T09:37:17;5.80;;;1.70;;
61356;SDS011;47227;46.752;23.576;2023-05-10T09:41:34;2.40;;;1.30;;
61356;SDS011;47227;46.752;23.576;2023-05-10T09:44:59;1.50;;;1.40;;
61356;SDS011;47227;46.752;23.576;2023-05-10T09:53:35;8.00;;;1.40;;
61356;SDS011;47227;46.752;23.576;2023-05-10T10:00:40;3.70;;;1.80;;
61356;SDS011;47227;46.752;23.576;2023-05-10T10:36:12;7.00;;;1.80;;
61356;SDS011;47227;46.752;23.576;2023-05-10T10:40:25;10.40;;;1.90;;
61356;SDS011;47227;46.752;23.576;2023-05-10T10:44:48;2.00;;;1.10;;
61356;SDS011;47227;46.752;23.576;2023-05-10T10:47:37;4.80;;;1.60;;
61356;SDS011;47227;46.752;23.576;2023-05-10T10:50:55;3.00;;;1.10;;
61356;SDS011;47227;46.752;23.576;2023-05-10T10:53:49;1.50;;;0.80;;
61356;SDS011;47227;46.752;23.576;2023-05-10T11:07:25;1.60;;;1.10;;
61356;SDS011;47227;46.752;23.576;2023-05-10T11:11:37;4.00;;;1.50;;
61356;SDS011;47227;46.752;23.576;2023-05-10T11:15:28;1.30;;;1.10;;
61356;SDS011;47227;46.752;23.576;2023-05-10T11:19:07;4.00;;;1.00;;
61356;SDS011;47227;46.752;23.576;2023-05-10T11:41:17;8.00;;;1.80;;
61356;SDS011;47227;46.752;23.576;2023-05-10T11:55:28;5.40;;;1.20;;
61356;SDS011;47227;46.752;23.576;2023-05-10T11:58:20;1.60;;;1.20;;
61356;SDS011;47227;46.752;23.576;2023-05-10T12:05:48;1.70;;;1.20;;
61356;SDS011;47227;46.752;23.576;2023-05-10T12:14:25;3.80;;;1.30;;
61356;SDS011;47227;46.752;23.576;2023-05-10T12:17:34;1.60;;;1.20;;
61356;SDS011;47227;46.752;23.576;2023-05-10T12:20:48;3.70;;;1.20;;
61356;SDS011;47227;46.752;23.576;2023-05-10T12:27:50;2.90;;;1.10;;
61356;SDS011;47227;46.752;23.576;2023-05-10T12:31:07;2.70;;;1.30;;
61356;SDS011;47227;46.752;23.576;2023-05-10T12:34:36;5.80;;;1.00;;
61356;SDS011;47227;46.752;23.576;2023-05-10T12:38:22;5.00;;;1.30;;
61356;SDS011;47227;46.752;23.576;2023-05-10T12:41:33;2.20;;;1.30;;
61356;SDS011;47227;46.752;23.576;2023-05-10T12:46:04;7.70;;;1.10;;
61356;SDS011;47227;46.752;23.576;2023-05-10T12:49:54;3.70;;;1.00;;
61356;SDS011;47227;46.752;23.576;2023-05-10T12:56:58;1.80;;;1.10;;
61356;SDS011;47227;46.752;23.576;2023-05-10T13:09:14;2.80;;;0.80;;
61356;SDS011;47227;46.752;23.576;2023-05-10T13:11:42;1.80;;;1.10;;
61356;SDS011;47227;46.752;23.576;2023-05-10T13:14:20;1.40;;;0.90;;
61356;SDS011;47227;46.752;23.576;2023-05-10T13:16:47;1.20;;;1.00;;
61356;SDS011;47227;46.752;23.576;2023-05-10T13:19:14;3.00;;;1.30;;
61356;SDS011;47227;46.752;23.576;2023-05-10T13:21:43;4.10;;;1.20;;
61356;SDS011;47227;46.752;23.576;2023-05-10T13:24:11;4.90;;;1.60;;
61356;SDS011;47227;46.752;23.576;2023-05-10T13:26:44;4.60;;;1.00;;
61356;SDS011;47227;46.752;23.576;2023-05-10T13:29:42;1.60;;;0.50;;
61356;SDS011;47227;46.752;23.576;2023-05-10T13:32:15;4.40;;;1.00;;
61356;SDS011;47227;46.752;23.576;2023-05-10T13:34:45;0.80;;;0.80;;
61356;SDS011;47227;46.752;23.576;2023-05-10T13:37:12;1.80;;;0.70;;
61356;SDS011;47227;46.752;23.576;2023-05-10T13:39:40;2.30;;;0.80;;
61356;SDS011;47227;46.752;23.576;2023-05-10T13:42:22;1.30;;;0.90;;
61356;SDS011;47227;46.752;23.576;2023-05-10T13:45:10;1.40;;;1.00;;
61356;SDS011;47227;46.752;23.576;2023-05-10T13:47:57;5.40;;;1.40;;
61356;SDS011;47227;46.752;23.576;2023-05-10T13:50:26;5.30;;;0.80;;
61356;SDS011;47227;46.752;23.576;2023-05-10T13:53:05;1.10;;;0.80;;
61356;SDS011;47227;46.752;23.576;2023-05-10T13:55:38;1.20;;;1.10;;
61356;SDS011;47227;46.752;23.576;2023-05-10T13:58:06;3.20;;;0.90;;
61356;SDS011;47227;46.752;23.576;2023-05-10T14:00:33;1.50;;;0.80;;
61356;SDS011;47227;46.752;23.576;2023-05-10T14:03:04;1.20;;;0.80;;
61356;SDS011;47227;46.752;23.576;2023-05-10T14:05:33;2.10;;;1.00;;
61356;SDS011;47227;46.752;23.576;2023-05-10T14:08:00;1.90;;;1.00;;
61356;SDS011;47227;46.752;23.576;2023-05-10T14:10:27;5.40;;;0.80;;
61356;SDS011;47227;46.752;23.576;2023-05-10T14:12:54;2.00;;;0.80;;
61356;SDS011;47227;46.752;23.576;2023-05-10T14:15:22;2.30;;;1.00;;
61356;SDS011;47227;46.752;23.576;2023-05-10T14:17:48;2.00;;;1.20;;
61356;SDS011;47227;46.752;23.576;2023-05-10T14:20:15;8.50;;;0.90;;
61356;SDS011;47227;46.752;23.576;2023-05-10T14:22:42;1.10;;;0.80;;
61356;SDS011;47227;46.752;23.576;2023-05-10T14:25:11;1.40;;;1.10;;
61356;SDS011;47227;46.752;23.576;2023-05-10T14:27:38;0.90;;;0.70;;
61356;SDS011;47227;46.752;23.576;2023-05-10T14:30:06;0.90;;;0.80;;
61356;SDS011;47227;46.752;23.576;2023-05-10T14:32:37;1.60;;;0.70;;
61356;SDS011;47227;46.752;23.576;2023-05-10T14:35:04;0.90;;;0.90;;
61356;SDS011;47227;46.752;23.576;2023-05-10T14:37:32;3.20;;;0.90;;
61356;SDS011;47227;46.752;23.576;2023-05-10T14:39:59;1.00;;;0.70;;
61356;SDS011;47227;46.752;23.576;2023-05-10T14:42:26;2.90;;;0.90;;
61356;SDS011;47227;46.752;23.576;2023-05-10T14:44:54;1.80;;;0.90;;
61356;SDS011;47227;46.752;23.576;2023-05-10T14:47:22;3.70;;;0.90;;
61356;SDS011;47227;46.752;23.576;2023-05-10T14:49:49;2.10;;;0.80;;
61356;SDS011;47227;46.752;23.576;2023-05-10T14:52:16;2.50;;;0.80;;
61356;SDS011;47227;46.752;23.576;2023-05-10T14:54:43;5.40;;;0.70;;
61356;SDS011;47227;46.752;23.576;2023-05-10T14:57:09;2.10;;;0.80;;
61356;SDS011;47227;46.752;23.576;2023-05-10T14:59:36;1.80;;;1.00;;
61356;SDS011;47227;46.752;23.576;2023-05-10T15:05:03;3.30;;;1.10;;
61356;SDS011;47227;46.752;23.576;2023-05-10T15:07:50;1.70;;;0.90;;
61356;SDS011;47227;46.752;23.576;2023-05-10T15:10:17;2.30;;;0.90;;
61356;SDS011;47227;46.752;23.576;2023-05-10T15:12:44;0.90;;;0.80;;
61356;SDS011;47227;46.752;23.576;2023-05-10T15:15:10;3.40;;;0.80;;
61356;SDS011;47227;46.752;23.576;2023-05-10T15:17:37;1.80;;;0.90;;
61356;SDS011;47227;46.752;23.576;2023-05-10T15:20:04;1.40;;;0.80;;
61356;SDS011;47227;46.752;23.576;2023-05-10T15:22:31;4.10;;;0.90;;
61356;SDS011;47227;46.752;23.576;2023-05-10T15:25:00;1.30;;;0.90;;
61356;SDS011;47227;46.752;23.576;2023-05-10T15:27:27;0.90;;;0.80;;
61356;SDS011;47227;46.752;23.576;2023-05-10T15:29:54;1.00;;;0.80;;
61356;SDS011;47227;46.752;23.576;2023-05-10T15:32:21;3.90;;;0.70;;
61356;SDS011;47227;46.752;23.576;2023-05-10T15:34:48;1.90;;;0.90;;
61356;SDS011;47227;46.752;23.576;2023-05-10T15:37:15;1.90;;;1.00;;
61356;SDS011;47227;46.752;23.576;2023-05-10T15:39:41;2.30;;;0.80;;
61356;SDS011;47227;46.752;23.576;2023-05-10T15:42:08;3.30;;;1.30;;
61356;SDS011;47227;46.752;23.576;2023-05-10T15:44:35;3.60;;;0.90;;
61356;SDS011;47227;46.752;23.576;2023-05-10T15:47:04;0.70;;;0.70;;
61356;SDS011;47227;46.752;23.576;2023-05-10T15:49:33;1.40;;;0.80;;
61356;SDS011;47227;46.752;23.576;2023-05-10T15:52:00;0.90;;;0.80;;
61356;SDS011;47227;46.752;23.576;2023-05-10T15:54:55;1.10;;;0.80;;
61356;SDS011;47227;46.752;23.576;2023-05-10T15:57:39;0.90;;;0.60;;
61356;SDS011;47227;46.752;23.576;2023-05-10T16:00:09;1.50;;;0.80;;
61356;SDS011;47227;46.752;23.576;2023-05-10T16:02:38;1.00;;;0.90;;
61356;SDS011;47227;46.752;23.576;2023-05-10T16:05:08;2.50;;;0.80;;
61356;SDS011;47227;46.752;23.576;2023-05-10T16:07:43;1.60;;;1.00;;
61356;SDS011;47227;46.752;23.576;2023-05-10T16:10:10;1.90;;;1.00;;
61356;SDS011;47227;46.752;23.576;2023-05-10T16:12:38;1.80;;;0.80;;
61356;SDS011;47227;46.752;23.576;2023-05-10T16:15:24;2.30;;;0.80;;
61356;SDS011;47227;46.752;23.576;2023-05-10T16:17:53;3.20;;;1.10;;
61356;SDS011;47227;46.752;23.576;2023-05-10T16:20:23;1.80;;;0.80;;
61356;SDS011;47227;46.752;23.576;2023-05-10T16:22:53;3.40;;;0.80;;
61356;SDS011;47227;46.752;23.576;2023-05-10T16:25:41;1.30;;;0.90;;
61356;SDS011;47227;46.752;23.576;2023-05-10T16:28:08;0.80;;;0.80;;
61356;SDS011;47227;46.752;23.576;2023-05-10T16:37:08;0.90;;;0.90;;
61356;SDS011;47227;46.752;23.576;2023-05-10T16:49:49;13.60;;;2.40;;
61356;SDS011;47227;46.752;23.576;2023-05-10T16:52:58;2.00;;;1.10;;
61356;SDS011;47227;46.752;23.576;2023-05-10T16:58:53;10.80;;;1.60;;
61356;SDS011;47227;46.752;23.576;2023-05-10T17:02:31;2.80;;;1.10;;
61356;SDS011;47227;46.752;23.576;2023-05-10T17:11:21;1.20;;;1.10;;
61356;SDS011;47227;46.752;23.576;2023-05-10T17:14:31;2.20;;;1.00;;
61356;SDS011;47227;46.752;23.576;2023-05-10T17:17:44;7.90;;;1.70;;
61356;SDS011;47227;46.752;23.576;2023-05-10T17:21:36;5.50;;;1.60;;
61356;SDS011;47227;46.752;23.576;2023-05-10T17:25:34;2.90;;;1.70;;
61356;SDS011;47227;46.752;23.576;2023-05-10T17:29:17;3.80;;;1.40;;
61356;SDS011;47227;46.752;23.576;2023-05-10T17:32:37;4.30;;;1.50;;
61356;SDS011;47227;46.752;23.576;2023-05-10T17:36:16;3.30;;;2.20;;
61356;SDS011;47227;46.752;23.576;2023-05-10T17:39:51;4.10;;;1.30;;
61356;SDS011;47227;46.752;23.576;2023-05-10T17:43:12;4.10;;;1.70;;
61356;SDS011;47227;46.752;23.576;2023-05-10T17:46:51;4.60;;;1.60;;
61356;SDS011;47227;46.752;23.576;2023-05-10T17:50:27;5.10;;;2.70;;
61356;SDS011;47227;46.752;23.576;2023-05-10T17:57:45;5.10;;;1.80;;
61356;SDS011;47227;46.752;23.576;2023-05-10T18:01:17;2.20;;;1.70;;
61356;SDS011;47227;46.752;23.576;2023-05-10T18:04:28;3.00;;;2.10;;
61356;SDS011;47227;46.752;23.576;2023-05-10T18:08:10;4.20;;;2.50;;
61356;SDS011;47227;46.752;23.576;2023-05-10T18:11:49;7.20;;;2.90;;
61356;SDS011;47227;46.752;23.576;2023-05-10T18:15:15;6.40;;;2.90;;
61356;SDS011;47227;46.752;23.576;2023-05-10T18:18:47;6.30;;;3.20;;
61356;SDS011;47227;46.752;23.576;2023-05-10T18:28:20;6.00;;;2.50;;
61356;SDS011;47227;46.752;23.576;2023-05-10T18:31:47;5.80;;;2.10;;
61356;SDS011;47227;46.752;23.576;2023-05-10T18:35:33;6.40;;;2.10;;
61356;SDS011;47227;46.752;23.576;2023-05-10T18:38:46;3.60;;;2.00;;
61356;SDS011;47227;46.752;23.576;2023-05-10T18:42:06;2.90;;;2.00;;
61356;SDS011;47227;46.752;23.576;2023-05-10T18:45:19;6.00;;;2.20;;
61356;SDS011;47227;46.752;23.576;2023-05-10T18:48:55;6.60;;;1.70;;
61356;SDS011;47227;46.752;23.576;2023-05-10T18:52:25;3.30;;;2.00;;
61356;SDS011;47227;46.752;23.576;2023-05-10T18:56:03;4.50;;;2.20;;
61356;SDS011;47227;46.752;23.576;2023-05-10T18:59:33;5.50;;;2.00;;
61356;SDS011;47227;46.752;23.576;2023-05-10T19:03:20;6.00;;;2.20;;
61356;SDS011;47227;46.752;23.576;2023-05-10T19:06:56;4.90;;;2.00;;
61356;SDS011;47227;46.752;23.576;2023-05-10T19:10:32;2.10;;;1.60;;
61356;SDS011;47227;46.752;23.576;2023-05-10T19:13:39;8.80;;;3.70;;
61356;SDS011;47227;46.752;23.576;2023-05-10T19:17:06;4.40;;;2.30;;
61356;SDS011;47227;46.752;23.576;2023-05-10T19:20:37;2.90;;;2.50;;
61356;SDS011;47227;46.752;23.576;2023-05-10T19:23:53;2.70;;;2.00;;
61356;SDS011;47227;46.752;23.576;2023-05-10T19:27:28;4.20;;;2.40;;
61356;SDS011;47227;46.752;23.576;2023-05-10T19:31:37;6.20;;;2.10;;
61356;SDS011;47227;46.752;23.576;2023-05-10T19:35:11;4.10;;;1.90;;
61356;SDS011;47227;46.752;23.576;2023-05-10T19:38:35;7.50;;;2.00;;
61356;SDS011;47227;46.752;23.576;2023-05-10T19:41:58;4.60;;;2.20;;
61356;SDS011;47227;46.752;23.576;2023-05-10T19:45:25;42.80;;;5.80;;
61356;SDS011;47227;46.752;23.576;2023-05-10T19:48:42;7.30;;;3.10;;
61356;SDS011;47227;46.752;23.576;2023-05-10T19:51:52;5.40;;;2.60;;
61356;SDS011;47227;46.752;23.576;2023-05-10T19:55:00;4.10;;;3.00;;
61356;SDS011;47227;46.752;23.576;2023-05-10T19:57:49;9.20;;;2.80;;
61356;SDS011;47227;46.752;23.576;2023-05-10T20:01:00;4.10;;;2.70;;
61356;SDS011;47227;46.752;23.576;2023-05-10T20:04:27;5.80;;;2.90;;
61356;SDS011;47227;46.752;23.576;2023-05-10T20:07:15;5.70;;;3.10;;
61356;SDS011;47227;46.752;23.576;2023-05-10T20:10:25;3.60;;;2.50;;
61356;SDS011;47227;46.752;23.576;2023-05-10T20:13:34;5.70;;;2.70;;
61356;SDS011;47227;46.752;23.576;2023-05-10T20:16:22;5.90;;;2.90;;
61356;SDS011;47227;46.752;23.576;2023-05-10T20:19:18;3.50;;;2.60;;
61356;SDS011;47227;46.752;23.576;2023-05-10T20:22:19;4.00;;;1.90;;
61356;SDS011;47227;46.752;23.576;2023-05-10T20:25:11;4.20;;;2.40;;
61356;SDS011;47227;46.752;23.576;2023-05-10T20:28:03;4.80;;;2.90;;
61356;SDS011;47227;46.752;23.576;2023-05-10T20:30:55;4.80;;;2.30;;
61356;SDS011;47227;46.752;23.576;2023-05-10T20:34:02;2.70;;;2.10;;
61356;SDS011;47227;46.752;23.576;2023-05-10T20:36:54;3.40;;;2.40;;
61356;SDS011;47227;46.752;23.576;2023-05-10T20:39:58;2.40;;;2.20;;
61356;SDS011;47227;46.752;23.576;2023-05-10T20:43:12;3.40;;;2.30;;
61356;SDS011;47227;46.752;23.576;2023-05-10T20:46:12;4.00;;;2.70;;
61356;SDS011;47227;46.752;23.576;2023-05-10T20:49:41;4.60;;;2.30;;
61356;SDS011;47227;46.752;23.576;2023-05-10T20:52:45;3.20;;;2.80;;
61356;SDS011;47227;46.752;23.576;2023-05-10T20:56:31;5.20;;;2.80;;
61356;SDS011;47227;46.752;23.576;2023-05-10T20:59:58;4.50;;;2.80;;
61356;SDS011;47227;46.752;23.576;2023-05-10T21:03:02;5.70;;;2.70;;
61356;SDS011;47227;46.752;23.576;2023-05-10T21:06:13;4.70;;;2.50;;
61356;SDS011;47227;46.752;23.576;2023-05-10T21:09:26;4.40;;;2.70;;
61356;SDS011;47227;46.752;23.576;2023-05-10T21:12:20;4.50;;;2.60;;
61356;SDS011;47227;46.752;23.576;2023-05-10T21:15:54;5.00;;;2.60;;
61356;SDS011;47227;46.752;23.576;2023-05-10T21:19:42;4.90;;;2.80;;
61356;SDS011;47227;46.752;23.576;2023-05-10T21:22:56;4.20;;;2.90;;
61356;SDS011;47227;46.752;23.576;2023-05-10T21:26:23;4.50;;;3.00;;
61356;SDS011;47227;46.752;23.576;2023-05-10T21:29:51;3.50;;;2.60;;
61356;SDS011;47227;46.752;23.576;2023-05-10T21:32:24;4.50;;;3.60;;
61356;SDS011;47227;46.752;23.576;2023-05-10T21:35:08;5.70;;;3.40;;
61356;SDS011;47227;46.752;23.576;2023-05-10T21:37:34;10.30;;;3.40;;
61356;SDS011;47227;46.752;23.576;2023-05-10T21:40:01;4.30;;;3.40;;
61356;SDS011;47227;46.752;23.576;2023-05-10T21:42:29;7.40;;;3.20;;
61356;SDS011;47227;46.752;23.576;2023-05-10T21:44:57;5.40;;;3.10;;
61356;SDS011;47227;46.752;23.576;2023-05-10T21:47:23;5.50;;;3.40;;
61356;SDS011;47227;46.752;23.576;2023-05-10T21:49:50;3.90;;;2.80;;
61356;SDS011;47227;46.752;23.576;2023-05-10T21:52:16;4.10;;;2.60;;
61356;SDS011;47227;46.752;23.576;2023-05-10T21:54:43;4.40;;;2.60;;
61356;SDS011;47227;46.752;23.576;2023-05-10T21:57:10;5.90;;;3.10;;
61356;SDS011;47227;46.752;23.576;2023-05-10T21:59:37;3.70;;;2.60;;
61356;SDS011;47227;46.752;23.576;2023-05-10T22:02:03;3.60;;;3.20;;
61356;SDS011;47227;46.752;23.576;2023-05-10T22:04:30;4.40;;;3.70;;
61356;SDS011;47227;46.752;23.576;2023-05-10T22:06:57;3.60;;;3.30;;
61356;SDS011;47227;46.752;23.576;2023-05-10T22:09:23;4.50;;;3.30;;
61356;SDS011;47227;46.752;23.576;2023-05-10T22:11:50;3.60;;;2.60;;
61356;SDS011;47227;46.752;23.576;2023-05-10T22:14:17;5.40;;;3.10;;
61356;SDS011;47227;46.752;23.576;2023-05-10T22:16:43;5.90;;;3.20;;
61356;SDS011;47227;46.752;23.576;2023-05-10T22:19:10;4.70;;;3.30;;
61356;SDS011;47227;46.752;23.576;2023-05-10T22:21:37;3.80;;;3.20;;
61356;SDS011;47227;46.752;23.576;2023-05-10T22:24:03;3.10;;;2.80;;
61356;SDS011;47227;46.752;23.576;2023-05-10T22:26:30;4.60;;;3.10;;
61356;SDS011;47227;46.752;23.576;2023-05-10T22:28:56;4.10;;;2.90;;
61356;SDS011;47227;46.752;23.576;2023-05-10T22:31:23;4.90;;;3.20;;
61356;SDS011;47227;46.752;23.576;2023-05-10T22:33:49;5.20;;;2.90;;
61356;SDS011;47227;46.752;23.576;2023-05-10T22:36:16;3.90;;;3.10;;
61356;SDS011;47227;46.752;23.576;2023-05-10T22:38:42;3.70;;;2.90;;
61356;SDS011;47227;46.752;23.576;2023-05-10T22:41:09;4.00;;;2.90;;
61356;SDS011;47227;46.752;23.576;2023-05-10T22:43:35;3.90;;;2.80;;
61356;SDS011;47227;46.752;23.576;2023-05-10T22:46:02;3.10;;;2.80;;
61356;SDS011;47227;46.752;23.576;2023-05-10T22:48:28;4.30;;;3.10;;
61356;SDS011;47227;46.752;23.576;2023-05-10T22:50:55;4.40;;;2.90;;
61356;SDS011;47227;46.752;23.576;2023-05-10T22:54:17;3.70;;;2.70;;
61356;SDS011;47227;46.752;23.576;2023-05-10T22:57:30;3.20;;;2.90;;
61356;SDS011;47227;46.752;23.576;2023-05-10T23:01:17;3.40;;;3.00;;
61356;SDS011;47227;46.752;23.576;2023-05-10T23:04:45;3.20;;;2.60;;
61356;SDS011;47227;46.752;23.576;2023-05-10T23:07:56;3.00;;;2.70;;
61356;SDS011;47227;46.752;23.576;2023-05-10T23:11:35;3.60;;;2.90;;
61356;SDS011;47227;46.752;23.576;2023-05-10T23:15:02;4.80;;;3.40;;
61356;SDS011;47227;46.752;23.576;2023-05-10T23:18:38;6.10;;;3.10;;
61356;SDS011;47227;46.752;23.576;2023-05-10T23:21:57;5.30;;;3.40;;
61356;SDS011;47227;46.752;23.576;2023-05-10T23:25:36;4.10;;;3.10;;
61356;SDS011;47227;46.752;23.576;2023-05-10T23:28:50;5.70;;;3.50;;
61356;SDS011;47227;46.752;23.576;2023-05-10T23:32:29;3.70;;;3.20;;
61356;SDS011;47227;46.752;23.576;2023-05-10T23:35:58;3.60;;;2.80;;
61356;SDS011;47227;46.752;23.576;2023-05-10T23:39:21;3.80;;;2.80;;
61356;SDS011;47227;46.752;23.576;2023-05-10T23:42:02;3.90;;;3.40;;
61356;SDS011;47227;46.752;23.576;2023-05-10T23:45:19;4.60;;;3.50;;
61356;SDS011;47227;46.752;23.576;2023-05-10T23:49:08;3.70;;;3.40;;
61356;SDS011;47227;46.752;23.576;2023-05-10T23:52:33;4.10;;;3.70;;
61356;SDS011;47227;46.752;23.576;2023-05-10T23:56:30;6.50;;;4.00;;
